Weather observations for the past three days for
Lansing Municipal Airport
Imperial (Metric)
Date Time (cdt) Wind (mph) Vis. (mi.) Weather Sky Cond. Temperature (ºF) Relative Humidity Wind Chill (°F) Heat Index (°F) Pressure Precipitation (in)
Air Dwpt 6 hour altimeter (in) sea level (mb) 1 hr 3 hr 6 hr
Max. Min.
04 00:35 SW 7 10.00 Fair CLR 51.3 42.8 73% 29.72 0.0
04 00:15 SW 7 10.00 Fair CLR 52.2 42.8 71% 29.72 0.0
03 23:55 SW 7 10.00 Fair CLR 52.2 42.8 71% 29.72 0.0
03 23:35 S 9 10.00 Fair CLR 52.9 42.8 69% 29.73 0.0
03 23:15 S 10 10.00 Fair CLR 52.9 42.6 68% 29.73 0.0
03 22:55 SW 8 10.00 Fair CLR 53.6 42.8 67% 29.74 0.0
03 22:35 S 8 10.00 Fair CLR 53.8 42.8 67% 29.74 0.0
03 22:15 S 7 10.00 Fair CLR 53.6 42.8 67% 29.75 0.0
03 21:55 SW 8 10.00 Fair CLR 53.6 42.4 66% 29.75 0.0
03 21:35 S 7 10.00 Fair CLR 53.1 42.8 68% 29.75 0.0
03 21:15 S 8 10.00 Fair CLR 53.6 42.8 67% 29.75 0.0
03 20:55 S 8 10.00 Fair CLR 52.7 42.8 69% 29.74 0.0
03 20:35 S 8 10.00 Fair CLR 53.4 42.4 67% 29.74 0.0
03 20:15 S 9 10.00 Fair CLR 54.5 42.6 64% 29.74 0.0
03 19:55 S 8 10.00 Fair CLR 57.2 42.4 58% 29.74 0.0
03 19:35 S 10 10.00 Fair CLR 60.1 41.9 51% 29.74 0.0
03 19:15 SW 14 10.00 Fair CLR 61.5 41.4 48% 29.74 0.0
03 18:55 SW 15 G 22 10.00 Fair CLR 62.6 41.4 63.7 48.2 46% 29.74 0.0
03 18:35 S 15 G 25 10.00 Fair CLR 63 41 45% 29.74 0.0
03 18:15 S 20 G 26 10.00 Fair CLR 63.1 41 44% 29.75 0.0
03 17:55 S 18 G 24 10.00 Partly Cloudy SCT110 62.8 41.2 45% 29.75 0.0
03 17:35 S 18 G 24 10.00 Partly Cloudy SCT043 SCT070 SCT110 63 40.5 44% 29.76 0.0
03 17:15 SW 21 G 26 10.00 Partly Cloudy and Breezy SCT041 SCT049 SCT080 63.3 39.9 42% 29.77 0.0
03 16:55 S 20 G 26 10.00 Partly Cloudy SCT075 SCT110 63.1 40.3 43% 29.77 0.0
03 16:35 SW 18 G 24 10.00 Mostly Cloudy SCT075 BKN110 60.8 38.3 43% 29.78 0.0
03 16:15 SW 23 G 28 10.00 Partly Cloudy and Breezy SCT075 SCT110 61.9 37.8 41% 29.8 0.0
03 15:55 SW 22 G 33 10.00 Overcast and Breezy OVC075 60.8 36.7 41% 29.81 0.0
03 15:35 SW 24 G 32 10.00 Mostly Cloudy and Breezy BKN075 60.6 38.3 44% 29.81 0.0
03 15:15 S 24 G 36 10.00 Fair and Breezy CLR 61.9 38.5 42% 29.81 0.0
03 14:55 SW 25 G 30 10.00 Fair and Breezy CLR 62.2 41.4 47% 29.82 0.0
03 14:35 S 22 G 28 10.00 Partly Cloudy and Breezy SCT100 59 44.1 58% 29.83 0.0
03 14:15 S 18 G 23 10.00 Partly Cloudy SCT100 56.7 43.9 62% 29.85 0.0
03 13:55 S 13 G 20 10.00 Overcast OVC090 53.1 43.9 71% 29.86 0.0
03 13:35 S 12 10.00 Light Rain SCT036 BKN042 OVC090 49.1 43.5 81% 45 29.87 0.0
03 13:15 S 12 7.00 Rain BKN043 OVC050 48.4 43 82% 44 29.91 0.0
03 12:55 SW 10 10.00 Rain BKN048 OVC060 49.6 42.4 55 44.8 76% 46 29.94 0.0
03 12:35 S 9 10.00 Light Rain OVC050 48.7 43.7 83% 45 29.94 0.0
03 12:15 SW 12 10.00 Light Rain OVC060 48.6 41.9 78% 44 29.95 0.0
03 11:55 SW 13 10.00 Rain OVC050 49.1 42.3 77% 45 29.96 0.0
03 11:35 SW 15 G 22 10.00 Light Rain SCT033 SCT050 OVC060 49.8 41.4 73% 45 29.97 0.0
03 11:15 SW 21 G 35 10.00 Light Rain and Breezy SCT033 SCT050 SCT055 53.1 38.7 58% 29.97 0.0
03 10:55 W 18 G 25 10.00 Mostly Cloudy BKN100 54.9 36.7 51% 29.96 0.0
03 10:35 SW 17 G 28 10.00 Mostly Cloudy BKN100 54.5 35.6 49% 29.96 0.0
03 10:15 SW 22 10.00 Partly Cloudy and Breezy SCT110 55 35.6 48% 29.96 0.0
03 09:55 SW 18 G 28 10.00 Fair CLR 54 35.8 50% 29.96 0.0
03 09:35 SW 18 G 24 10.00 Fair CLR 52.9 36 53% 29.96 0.0
03 09:15 SW 13 G 21 10.00 Fair CLR 52 36.1 55% 29.97 0.0
03 08:55 SW 18 10.00 Partly Cloudy SCT120 50.5 34.9 55% 29.98 0.0
03 08:35 SW 18 G 24 10.00 Partly Cloudy SCT120 49.6 34.2 55% 44 29.98 0.0
03 08:15 SW 15 G 21 10.00 Fair CLR 49.1 34 56% 44 29.99 0.0
03 07:55 SW 12 10.00 Fair CLR 47.7 33.8 59% 43 29.99 0.0
03 07:35 SW 14 10.00 Fair CLR 46.9 32.5 57% 42 29.99 0.0
03 07:15 SW 13 G 18 10.00 Fair CLR 46.4 32 57% 41 29.99 0.0
03 06:55 SW 9 10.00 Fair CLR 44.6 32 44.6 40.8 61% 40 29.98 0.0
03 06:35 SW 8 10.00 Fair CLR 42.3 30.9 64% 38 29.98 0.0
03 06:15 SW 9 10.00 Fair CLR 43.3 29.8 59% 39 29.98 0.0
03 05:55 SW 10 10.00 Mostly Cloudy BKN085 43.2 29.3 58% 38 29.98 0.0
03 05:35 SW 10 G 20 10.00 Mostly Cloudy BKN085 43.7 28.9 56% 39 29.98 0.0
03 05:15 SW 12 10.00 Partly Cloudy SCT085 43.7 28.8 56% 38 29.98 0.0
03 04:55 SW 12 10.00 Fair CLR 43.2 28.9 57% 38 29.98 0.0
03 04:35 SW 9 10.00 Fair CLR 42.4 29.1 59% 38 29.99 0.0
03 04:15 SW 7 10.00 Fair CLR 41 29.1 63% 37 29.99 0.0
03 03:55 SW 7 10.00 Fair CLR 41.2 29.1 62% 37 29.99 0.0
03 03:35 SW 9 10.00 Fair CLR 41.7 28.8 60% 37 29.99 0.0
03 03:15 SW 8 10.00 Fair CLR 42.1 28.6 59% 38 29.99 0.0
03 02:55 SW 8 10.00 Fair CLR 42.8 28.4 57% 39 29.99 0.0
03 02:35 SW 8 10.00 Fair CLR 42.1 28.4 58% 38 29.99 0.0
03 02:15 SW 9 10.00 Fair CLR 42.6 28.8 58% 38 30 0.0
03 01:55 SW 10 10.00 Fair CLR 42.4 28.9 59% 37 30 0.0
03 01:35 SW 8 10.00 Fair CLR 41 29.5 64% 36 30.01 0.0
03 01:15 SW 8 10.00 Fair CLR 41.7 29.8 63% 37 30.01 0.0
03 00:55 SW 8 10.00 Fair CLR 41.2 29.7 53.6 38.8 64% 37 30.02 0.0
03 00:35 SW 6 10.00 Fair CLR 40.8 30.9 68% 37 30.02 0.0
03 00:15 SW 6 10.00 Fair CLR 40.8 30.9 68% 37 30.02 0.0
02 23:55 SW 6 10.00 Fair CLR 40.3 31.1 70% 37 30.03 0.0
02 23:35 SW 6 10.00 Fair CLR 40.1 31.8 72% 37 30.03 0.0
02 23:15 SW 6 10.00 Fair CLR 41 31.8 70% 38 30.03 0.0
02 22:55 SW 6 10.00 Fair CLR 41 32 70% 38 30.03 0.0
02 22:35 SW 5 10.00 Fair CLR 39.4 31.6 74% 37 30.03 0.0
02 22:15 SW 3 10.00 Fair CLR 40.5 32 72% 30.04 0.0
02 21:55 SW 5 10.00 Fair CLR 39.6 31.5 73% 37 30.04 0.0
02 21:35 SW 5 10.00 Fair CLR 41.9 31.1 66% 40 30.04 0.0
02 21:15 S 5 10.00 Fair CLR 42.3 31.6 66% 40 30.04 0.0
02 20:55 S 6 10.00 Fair CLR 40.3 31.3 70% 37 30.03 0.0
02 20:35 S 5 10.00 Fair CLR 43.3 31.3 63% 41 30.03 0.0
02 20:15 S 3 10.00 Fair CLR 44.4 30.7 59% 30.02 0.0
02 19:55 SW 5 10.00 Fair CLR 49.1 29.1 46% 48 30.03 0.0
02 19:35 W 6 10.00 Partly Cloudy SCT090 50.2 27.5 42% 30.03 0.0
02 19:15 W 8 10.00 Partly Cloudy SCT070 SCT090 52 27.7 39% 30.03 0.0
02 18:55 W 5 10.00 Mostly Cloudy SCT070 BKN090 53.6 27 55.4 49.5 36% 30.03 0.0
02 18:35 W 6 10.00 Mostly Cloudy BKN070 BKN090 53.6 26.4 35% 30.03 0.0
02 18:15 W 6 10.00 Overcast BKN070 OVC085 52.7 26.4 36% 30.04 0.0
02 17:55 Calm 10.00 Overcast BKN070 OVC085 53.2 26.6 36% 30.04 0.0
02 17:15 NW 3 10.00 Overcast BKN075 OVC085 53.1 24.8 33% 30.04 0.0
02 16:55 NW 7 10.00 Overcast BKN075 OVC085 53.2 25.3 34% 30.04 0.0
02 16:35 N 5 10.00 Mostly Cloudy BKN070 BKN090 54.7 26.6 34% 30.04 0.0
02 16:15 N 5 10.00 Mostly Cloudy BKN070 53.4 26.1 35% 30.05 0.0
02 15:55 NW 3 10.00 Mostly Cloudy BKN070 54.1 25.9 34% 30.05 0.0
02 15:35 W 8 10.00 Overcast BKN070 OVC080 54.9 25.5 32% 30.05 0.0
02 15:15 Calm 10.00 Partly Cloudy SCT070 54.3 24.6 32% 30.06 0.0
02 14:55 Calm 10.00 Partly Cloudy SCT070 53.2 26.1 35% 30.08 0.0
02 14:35 Calm 10.00 Partly Cloudy SCT070 53.6 27.1 36% 30.08 0.0
02 14:15 SW 6 10.00 Partly Cloudy SCT070 53.1 24.4 33% 30.08 0.0
02 13:55 NE 9 10.00 Partly Cloudy SCT065 51.3 25 36% 30.09 0.0
02 13:35 NE 5 10.00 Partly Cloudy SCT065 49.6 23.2 35% 48 30.1 0.0
02 13:15 N 6 10.00 Partly Cloudy SCT065 50.9 26.1 38% 30.11 0.0
02 12:55 N 7 10.00 Partly Cloudy SCT065 52.9 26.2 52.9 31.5 36% 30.11 0.0
02 12:35 NW 7 10.00 Mostly Cloudy BKN065 51.4 26.2 38% 30.12 0.0
02 12:15 W 8 10.00 Mostly Cloudy BKN065 51.1 25.3 37% 30.12 0.0
02 11:55 N 7 10.00 Partly Cloudy SCT065 50.7 25 37% 30.13 0.0
02 11:35 NW 3 10.00 Mostly Cloudy BKN055 50.2 26.1 39% 30.13 0.0
02 11:15 W 5 10.00 Overcast OVC055 48.2 24.6 40% 47 30.13 0.0
02 10:55 NW 5 10.00 Mostly Cloudy BKN055 48.2 23.9 39% 47 30.14 0.0
02 10:35 N 3 10.00 Mostly Cloudy BKN055 48.6 26.1 42% 30.14 0.0
02 10:15 NW 6 10.00 Partly Cloudy SCT055 48 27.1 44% 46 30.14 0.0
02 09:55 W 3 10.00 Fair CLR 47.3 25.5 43% 30.14 0.0
02 09:35 W 6 10.00 Fair CLR 45.9 24.1 42% 43 30.14 0.0
02 09:15 W 7 10.00 Fair CLR 45.1 26.1 47% 42 30.14 0.0
02 08:55 NW 6 10.00 Fair CLR 44.8 27.9 52% 42 30.13 0.0
02 08:35 NW 6 10.00 Fair CLR 44.1 27.9 53% 41 30.13 0.0
02 08:15 Calm 10.00 Fair CLR 42.4 29.7 61% 30.13 0.0
02 07:55 Calm 10.00 Fair CLR 40.5 32.4 73% 30.13 0.0
02 07:35 Calm 10.00 Fair CLR 37 32.4 83% 30.13 0.0
02 07:15 Calm 10.00 Fair CLR 34 32.7 95% 30.13 0.0
02 06:55 Calm 7.00 Fair CLR 31.1 30.6 33.1 28.2 98% 30.13 0.0
02 06:35 Calm 10.00 Fair CLR 29.3 28.6 97% 30.12 0.0
02 06:15 Calm 10.00 Fair CLR 28.6 27.5 96% 30.12 0.0
02 05:55 Calm 10.00 Fair CLR 28.9 27.9 96% 30.11 0.0
02 05:35 Calm 10.00 Fair CLR 29.8 29.1 97% 30.11 0.0
02 05:15 Calm 10.00 Fair CLR 29.8 29.3 98% 30.11 0.0
02 04:55 Calm 10.00 Fair CLR 28.6 27.7 96% 30.11 0.0
02 04:35 Calm 10.00 Fair CLR 30.2 29.1 96% 30.11 0.0
02 04:15 Calm 10.00 Fair CLR 30 29.1 96% 30.11 0.0
02 03:55 Calm 10.00 Fair CLR 29.5 28.4 96% 30.11 0.0
02 03:35 Calm 10.00 Fair CLR 30.7 29.7 96% 30.11 0.0
02 03:15 Calm 10.00 Fair CLR 31.6 30.6 96% 30.11 0.0
02 02:55 Calm 10.00 Fair CLR 31.1 30 96% 30.11 0.0
02 02:35 Calm 10.00 Fair CLR 31.8 30 93% 30.11 0.0
02 02:15 Calm 10.00 Fair CLR 32 29.8 92% 30.11 0.0
02 01:55 Calm 10.00 Fair CLR 32 29.5 90% 30.11 0.0
02 01:35 Calm 10.00 Fair CLR 32.7 29.8 89% 30.12 0.0
02 01:15 Calm 10.00 Fair CLR 32.5 29.8 90% 30.12 0.0
02 00:55 Calm 10.00 Fair CLR 33.3 30 42.1 33.3 88% 30.12 0.0
02 00:35 Calm 10.00 Fair CLR 34 31.3 90% 30.12 0.0
02 00:15 Calm 10.00 Fair CLR 33.3 30.6 90% 30.12 0.0
01 23:55 Calm 10.00 Fair CLR 34.5 30.9 87% 30.13 0.0
01 23:35 Calm 10.00 Fair CLR 34.7 30.7 85% 30.13 0.0
01 23:15 Calm 10.00 Partly Cloudy SCT050 36.9 29.7 75% 30.13 0.0
01 22:55 Calm 10.00 Mostly Cloudy BKN050 37.2 28.2 70% 30.12 0.0
01 22:35 Calm 10.00 Mostly Cloudy BKN050 38.1 28.2 68% 30.12 0.0
01 22:15 Calm 10.00 Partly Cloudy SCT048 38.5 27.1 64% 30.12 0.0
01 21:55 NE 3 10.00 Fair CLR 38.3 27.5 65% 30.11 0.0
01 21:35 NE 3 10.00 Fair CLR 37.8 27.3 66% 30.11 0.0
01 21:15 NE 3 10.00 Fair CLR 37.9 27 65% 30.11 0.0
01 20:55 NE 5 10.00 Fair CLR 38.5 28 66% 36 30.1 0.0
01 20:35 NE 6 10.00 Partly Cloudy SCT060 38.5 29.3 70% 35 30.09 0.0
01 20:15 NE 8 10.00 Partly Cloudy SCT060 38.8 29.3 69% 34 30.08 0.0
01 19:55 NE 9 10.00 Fair CLR 39.4 28.4 65% 34 30.08 0.0
01 19:35 NE 9 10.00 Fair CLR 40.1 28.4 63% 35 30.08 0.0
01 19:15 NE 7 10.00 Fair CLR 41.4 29.1 62% 37 30.07 0.0
01 18:55 NE 8 10.00 Fair CLR 42.1 28.9 46.6 42.1 60% 38 30.06 0.0
01 18:35 E 8 10.00 Fair CLR 43 30.2 61% 39 30.07 0.0
01 18:15 NE 8 10.00 Partly Cloudy SCT100 44.1 31.5 61% 40 30.06 0.0
01 17:55 NE 6 10.00 Partly Cloudy SCT100 44.4 30.9 59% 42 30.06 0.0
01 17:35 NE 7 10.00 Partly Cloudy SCT100 45 31.8 60% 42 30.07 0.0
01 17:15 NE 9 10.00 Overcast OVC100 44.8 31.6 60% 40 30.06 0.0
01 16:55 NE 8 10.00 Mostly Cloudy SCT055 BKN100 44.4 31.6 61% 40 30.06 0.0
01 16:35 NE 7 10.00 Mostly Cloudy SCT055 SCT065 BKN100 45.7 31.5 58% 43 30.06 0.0
01 16:15 NE 7 10.00 Mostly Cloudy SCT060 BKN090 45 31.6 60% 42 30.06 0.0
01 15:55 NE 8 10.00 Mostly Cloudy SCT065 BKN090 46 31.5 57% 42 30.06 0.0
01 15:35 N 7 10.00 Overcast BKN075 OVC090 45.7 31.8 59% 43 30.06 0.0
01 15:15 N 8 10.00 Mostly Cloudy BKN075 BKN095 45.7 32.7 61% 42 30.06 0.0
01 14:55 NE 9 10.00 Mostly Cloudy SCT049 BKN060 BKN095 46 34.2 63% 42 30.06 0.0
01 14:35 NE 10 10.00 Overcast SCT047 SCT055 OVC065 45.7 33.4 62% 41 30.06 0.0
01 14:15 NE 9 10.00 Overcast SCT060 OVC075 44.1 33.3 66% 40 30.06 0.0
01 13:55 E 8 10.00 Overcast SCT040 SCT047 OVC055 44.2 34.5 69% 40 30.05 0.0
01 13:35 NE 7 10.00 Overcast SCT026 OVC065 44.2 33.4 66% 41 30.05 0.0
01 13:15 NE 10 10.00 Overcast SCT024 SCT055 OVC065 45.7 34.7 66% 41 30.04 0.0
01 12:55 NE 8 10.00 Overcast SCT022 BKN065 OVC075 44.8 35.8 49.3 40.3 71% 41 30.04 0.0
01 12:35 NE 8 10.00 Overcast BKN065 OVC075 45.5 36.3 70% 42 30.04 0.0
01 12:15 NE 9 10.00 Overcast SCT050 OVC065 45.5 38.1 76% 41 30.03 0.0
01 11:55 NE 9 10.00 Overcast OVC055 44.1 37.4 78% 40 30.03 0.0
01 11:35 NE 10 10.00 Overcast SCT021 BKN038 OVC055 43.9 37.6 79% 39 30.03 0.0
01 11:15 NE 8 10.00 Overcast SCT034 BKN040 OVC050 46 31.8 58% 42 30.03 0.0
01 10:55 NW 9 10.00 Mostly Cloudy SCT031 BKN042 BKN065 48.2 33.3 56% 45 30.03 0.0
01 10:35 N 8 10.00 Partly Cloudy SCT024 SCT031 SCT065 48.6 36.7 64% 45 30.03 0.0
01 10:15 N 3 10.00 Mostly Cloudy SCT023 BKN028 BKN035 44.2 35.2 71% 30.03 0.0
01 09:55 NE 3 10.00 Overcast SCT019 BKN030 OVC040 45.7 37.8 74% 30.03 0.0
01 09:35 N 6 10.00 Overcast BKN019 OVC024 43.7 37.8 80% 41 30.03 0.0
01 09:15 N 8 10.00 Overcast OVC021 43.9 37 77% 40 30.02 0.0
01 08:55 NE 7 10.00 Mostly Cloudy BKN019 BKN026 44.1 36.1 74% 41 30.01 0.0
01 08:35 Calm 10.00 Mostly Cloudy SCT015 BKN024 43.2 37.4 80% 30.01 0.0
01 08:15 N 5 10.00 Overcast OVC024 42.1 36.9 82% 40 30.01 0.0
01 07:55 N 3 10.00 Mostly Cloudy BKN022 41.9 36.5 81% 30.01 0.0
01 07:35 N 3 10.00 Fair CLR 42.1 37 82% 30.01 0.0
01 07:15 N 3 10.00 Partly Cloudy SCT018 SCT024 41.2 37 85% 30 0.0
01 06:55 Calm 10.00 Light Rain OVC020 40.3 36.7 41 40.3 87% 29.99 0.0
01 06:35 N 3 10.00 Rain BKN020 OVC028 40.6 36.5 85% 29.99 0.0
01 06:15 N 6 10.00 Light Rain SCT018 BKN027 OVC060 40.6 36.9 86% 37 29.99 0.0
01 05:55 N 3 10.00 Light Rain SCT022 SCT044 OVC060 41 37.8 88% 29.98 0.0
01 05:35 N 3 10.00 Unknown Precip SCT032 OVC043 41 38.1 90% 29.98 0.0
01 05:15 N 3 10.00 Overcast SCT012 BKN030 OVC042 41 38.1 90% 29.97 0.0
01 04:55 N 3 10.00 Overcast SCT025 BKN039 OVC044 41 38.3 90% 29.96 0.0
01 04:35 N 3 10.00 Overcast SCT025 SCT032 OVC039 40.6 37.8 90% 29.96 0.0
01 04:15 NE 5 10.00 Light Drizzle BKN015 OVC035 41 37.9 89% 38 29.96 0.0
01 03:55 NE 6 10.00 Light Rain OVC015 41 37.6 88% 38 29.96 0.0
01 03:35 NE 6 10.00 Overcast BKN017 BKN026 OVC031 41 38.3 90% 38 29.96 0.0
01 03:15 NE 5 7.00 Overcast SCT017 BKN031 OVC055 40.6 38.7 93% 38 29.95 0.0
01 02:55 N 3 7.00 Overcast OVC049 40.5 38.7 93% 29.95 0.0
01 02:35 E 5 7.00 Overcast OVC049 40.5 38.5 93% 38 29.94 0.0
01 02:15 E 3 7.00 Light Rain OVC045 40.6 38.7 93% 29.96 0.0
01 01:55 Calm 7.00 Rain BKN030 OVC042 40.6 38.1 91% 29.96 0.0
01 01:35 NE 3 5.00 Rain SCT014 OVC030 40.6 38.1 91% 29.96 0.0
01 01:15 NE 3 10.00 Rain BKN009 OVC014 41 38.3 90% 29.97 0.0
01 00:55 NE 8 10.00 Light Rain BKN010 OVC015 41 38.8 43.7 41 92% 36 29.97 0.0
Date Time (cdt) Wind (mph) Vis. (mi.) Weather Sky Cond. Air Dwpt Max. Min. Relative Humidity Wind Chill (°F) Heat Index (°F) altimeter (in) sea level (mb) 1 hr 3 hr 6 hr
6 hour
Temperature (ºF) Pressure Precipitation (in)